Time;durP1;ratioP1;P1;durP2;ratioP2;P2;SDS_P1;SDS_P2;PMS_P1;PMS_P2;Temp;Humidity;BMP_temperature;BMP_pressure;BME280_temperature;BME280_humidity;BME280_pressure;Samples;Min_cycle;Max_cycle;Signal;HPM_P1;HPM_P2
2022/08/07 00:02:19;;;;;;;;;;;;;;;24.87;67.52;100462.97;1782736;79;20472;-70
2022/08/07 00:04:45;;;;;;;;;;;;;;;24.87;67.49;100464.91;1787217;79;21097;-69
2022/08/07 00:07:12;;;;;;;;;;;;;;;24.84;67.46;100458.80;1788437;79;20222;-69
2022/08/07 00:09:39;;;;;;;;;;;;;;;24.81;67.54;100468.52;1786080;79;20493;-69
2022/08/07 00:12:05;;;;;;;;;;;;;;;24.80;67.54;100463.59;1787735;79;20187;-69
2022/08/07 00:14:32;;;;;;;;;;;;;;;24.79;67.39;100468.06;1786490;78;20194;-69
2022/08/07 00:16:59;;;;;;;;;;;;;;;24.77;67.35;100460.20;1787073;79;21234;-69
2022/08/07 00:19:27;;;;;;;;;;;;;;;24.75;67.44;100461.16;1786847;79;20190;-70
2022/08/07 00:21:53;;;;;;;;;;;;;;;24.72;67.51;100467.91;1788920;79;20204;-70
2022/08/07 00:24:20;;;;;;;;;;;;;;;24.71;67.52;100464.94;1785060;79;20225;-69
2022/08/07 00:26:46;;;;;;;;;;;;;;;24.69;67.72;100469.98;1786263;80;20194;-70
2022/08/07 00:29:14;;;;;;;;;;;;;;;24.65;68.06;100467.17;1786784;79;21122;-70
2022/08/07 00:31:40;;;;;;;;;;;;;;;24.62;68.42;100469.23;1784923;79;20245;-70
2022/08/07 00:34:07;;;;;;;;;;;;;;;24.59;68.67;100467.21;1762363;80;20202;-69
2022/08/07 00:36:33;;;;;;;;;;;;;;;24.57;68.74;100468.91;1786776;79;20229;-69
2022/08/07 00:39:00;;;;;;;;;;;;;;;24.54;68.81;100472.35;1786759;79;20163;-71
2022/08/07 00:41:29;;;;;;;;;;;;;;;24.53;68.86;100469.98;1782724;79;21101;-70
2022/08/07 00:43:55;;;;;;;;;;;;;;;24.50;68.90;100474.21;1759903;79;20164;-69
2022/08/07 00:46:22;;;;;;;;;;;;;;;24.47;68.96;100475.48;1786193;80;20162;-69
2022/08/07 00:48:48;;;;;;;;;;;;;;;24.43;69.00;100476.77;1784199;80;20345;-72
2022/08/07 00:51:15;;;;;;;;;;;;;;;24.41;69.04;100469.49;1786698;79;20209;-70
2022/08/07 00:53:41;;;;;;;;;;;;;;;24.39;69.01;100475.08;1761068;80;21741;-70
2022/08/07 00:56:11;;;;;;;;;;;;;;;24.37;68.98;100475.41;1786548;79;20209;-70
2022/08/07 00:58:41;;;;;;;;;;;;;;;24.34;68.93;100476.91;1783712;80;20171;-70
2022/08/07 01:01:07;;;;;;;;;;;;;;;24.32;69.00;100480.58;1786377;79;20521;-70
2022/08/07 01:03:34;;;;;;;;;;;;;;;24.32;69.10;100479.79;1785959;79;20202;-71
2022/08/07 01:06:01;;;;;;;;;;;;;;;24.32;69.15;100479.21;1789464;80;21106;-70
2022/08/07 01:08:28;;;;;;;;;;;;;;;24.33;69.17;100483.52;1788529;79;20210;-70
2022/08/07 01:10:55;;;;;;;;;;;;;;;24.34;69.18;100487.03;1789697;79;20216;-70
2022/08/07 01:13:22;;;;;;;;;;;;;;;24.35;69.19;100484.55;1786770;79;20218;-70
2022/08/07 01:15:49;;;;;;;;;;;;;;;24.38;69.15;100488.48;1787060;79;20544;-70
2022/08/07 01:18:16;;;;;;;;;;;;;;;24.38;69.17;100489.85;1772320;80;21120;-70
2022/08/07 01:20:45;;;;;;;;;;;;;;;24.36;69.14;100483.39;1792408;79;20476;-70
2022/08/07 01:23:11;;;;;;;;;;;;;;;24.37;69.06;100482.81;1791493;78;20175;-70
2022/08/07 01:25:39;;;;;;;;;;;;;;;24.35;68.98;100484.55;1786647;79;20383;-70
2022/08/07 01:28:05;;;;;;;;;;;;;;;24.35;68.93;100488.64;1783256;80;20496;-70
2022/08/07 01:30:32;;;;;;;;;;;;;;;24.34;68.94;100487.03;1786414;79;22079;-69
2022/08/07 01:32:59;;;;;;;;;;;;;;;24.32;68.94;100484.67;1786444;79;20194;-69
2022/08/07 01:35:27;;;;;;;;;;;;;;;24.33;68.94;100488.98;1785308;78;20244;-69
2022/08/07 01:37:54;;;;;;;;;;;;;;;24.31;68.94;100489.89;1785954;79;20166;-69
2022/08/07 01:40:20;;;;;;;;;;;;;;;24.28;69.04;100486.53;1779522;80;20432;-69
2022/08/07 01:42:57;;;;;;;;;;;;;;;24.29;69.10;100494.14;1784890;79;21781;-69
2022/08/07 01:45:25;;;;;;;;;;;;;;;24.28;69.22;100488.44;1785234;79;20159;-69
2022/08/07 01:47:54;;;;;;;;;;;;;;;24.27;69.28;100485.49;1782948;80;20231;-70
2022/08/07 01:50:21;;;;;;;;;;;;;;;24.25;69.42;100484.50;1785079;79;21143;-70
2022/08/07 01:52:48;;;;;;;;;;;;;;;24.27;69.35;100488.22;1786616;79;20193;-70
2022/08/07 01:55:15;;;;;;;;;;;;;;;24.23;69.27;100484.62;1786221;78;21218;-70
2022/08/07 01:57:42;;;;;;;;;;;;;;;24.18;69.25;100478.83;1765816;80;20158;-70
2022/08/07 02:00:11;;;;;;;;;;;;;;;24.17;69.31;100480.56;1760039;80;20417;-70
2022/08/07 02:02:44;;;;;;;;;;;;;;;24.14;69.40;100477.95;1786285;80;20485;-69
2022/08/07 02:05:14;;;;;;;;;;;;;;;24.11;69.47;100480.80;1758265;80;20186;-70
2022/08/07 02:07:48;;;;;;;;;;;;;;;24.13;69.50;100485.14;1785700;79;21195;-70
2022/08/07 02:10:16;;;;;;;;;;;;;;;24.13;69.50;100480.47;1786860;79;20225;-70
2022/08/07 02:12:44;;;;;;;;;;;;;;;24.10;69.53;100483.32;1786401;80;21091;-70
2022/08/07 02:15:12;;;;;;;;;;;;;;;24.13;69.56;100483.77;1789177;80;20166;-68
2022/08/07 02:17:42;;;;;;;;;;;;;;;24.11;69.54;100487.63;1786916;79;20497;-69
2022/08/07 02:20:09;;;;;;;;;;;;;;;24.09;69.62;100491.30;1787314;79;21132;-70
2022/08/07 02:22:37;;;;;;;;;;;;;;;24.09;69.64;100487.78;1786184;79;20426;-71
2022/08/07 02:25:06;;;;;;;;;;;;;;;24.08;69.60;100490.27;1786369;79;20265;-70
2022/08/07 02:27:32;;;;;;;;;;;;;;;24.07;69.56;100492.78;1780413;79;20155;-70
2022/08/07 02:29:59;;;;;;;;;;;;;;;24.05;69.54;100497.23;1786314;79;20167;-70
2022/08/07 02:32:27;;;;;;;;;;;;;;;24.02;69.60;100490.30;1785495;79;21532;-69
2022/08/07 02:34:54;;;;;;;;;;;;;;;24.00;69.65;100483.84;1783039;79;20179;-69
2022/08/07 02:37:22;;;;;;;;;;;;;;;23.96;69.77;100488.41;1773765;79;20169;-69
2022/08/07 02:39:49;;;;;;;;;;;;;;;23.95;69.95;100492.84;1776136;78;20201;-69
2022/08/07 02:42:18;;;;;;;;;;;;;;;23.95;70.04;100489.53;1790199;79;20194;-69
2022/08/07 02:44:48;;;;;;;;;;;;;;;23.93;70.13;100495.92;1786524;79;22151;-69
2022/08/07 02:47:17;;;;;;;;;;;;;;;23.93;70.22;100497.87;1786327;79;20199;-68
2022/08/07 02:49:43;;;;;;;;;;;;;;;23.93;70.29;100500.59;1786709;79;20457;-68
2022/08/07 02:52:12;;;;;;;;;;;;;;;23.95;70.26;100499.66;1787108;79;20158;-69
2022/08/07 02:54:40;;;;;;;;;;;;;;;23.97;70.22;100499.53;1787475;78;20249;-68
2022/08/07 02:57:07;;;;;;;;;;;;;;;23.98;70.17;100495.66;1785347;80;21144;-68
2022/08/07 02:59:34;;;;;;;;;;;;;;;23.99;70.19;100499.99;1787511;79;20167;-68
2022/08/07 03:02:01;;;;;;;;;;;;;;;24.00;70.27;100500.78;1782047;79;20175;-67
2022/08/07 03:04:28;;;;;;;;;;;;;;;24.02;70.31;100499.30;1783152;79;20210;-67
2022/08/07 03:06:54;;;;;;;;;;;;;;;24.04;70.32;100502.45;1762919;80;20178;-68
2022/08/07 03:09:22;;;;;;;;;;;;;;;24.07;70.32;100507.79;1785739;79;21216;-68
2022/08/07 03:11:49;;;;;;;;;;;;;;;24.10;70.32;100507.87;1784562;79;20229;-68
2022/08/07 03:14:15;;;;;;;;;;;;;;;24.15;70.28;100507.39;1784125;80;20233;-68
2022/08/07 03:16:42;;;;;;;;;;;;;;;24.19;70.10;100505.58;1785097;79;20225;-68
2022/08/07 03:19:09;;;;;;;;;;;;;;;24.22;69.87;100508.94;1787533;80;20183;-68
2022/08/07 03:21:36;;;;;;;;;;;;;;;24.24;69.71;100506.66;1786390;79;22023;-68
2022/08/07 03:24:04;;;;;;;;;;;;;;;24.28;69.68;100506.17;1783381;79;20167;-68
2022/08/07 03:26:32;;;;;;;;;;;;;;;24.32;69.58;100505.72;1785460;80;20282;-68
2022/08/07 03:29:00;;;;;;;;;;;;;;;24.32;69.41;100503.78;1786617;79;21292;-68
2022/08/07 03:31:28;;;;;;;;;;;;;;;24.35;69.38;100505.02;1764766;80;20174;-68
2022/08/07 03:33:58;;;;;;;;;;;;;;;24.39;69.47;100510.56;1784363;79;21460;-68
2022/08/07 03:36:26;;;;;;;;;;;;;;;24.40;69.54;100510.20;1784553;79;20280;-68
2022/08/07 03:38:55;;;;;;;;;;;;;;;24.44;69.59;100513.05;1786930;80;20237;-68
2022/08/07 03:41:22;;;;;;;;;;;;;;;24.48;69.68;100515.29;1784109;79;20615;-69
2022/08/07 03:43:48;;;;;;;;;;;;;;;24.56;69.77;100517.07;1785385;80;20158;-68
2022/08/07 03:46:15;;;;;;;;;;;;;;;24.64;69.74;100519.39;1787025;79;21110;-67
2022/08/07 03:48:42;;;;;;;;;;;;;;;24.68;69.59;100513.44;1785934;79;20478;-69
2022/08/07 03:51:09;;;;;;;;;;;;;;;24.69;69.58;100515.83;1786870;80;20210;-69
2022/08/07 03:53:38;;;;;;;;;;;;;;;24.68;69.64;100514.25;1786021;78;20175;-69
2022/08/07 03:56:05;;;;;;;;;;;;;;;24.71;69.53;100512.19;1787485;79;20190;-69
2022/08/07 03:58:33;;;;;;;;;;;;;;;24.78;69.37;100517.02;1788242;79;21145;-69
2022/08/07 04:01:00;;;;;;;;;;;;;;;24.85;69.22;100516.40;1789344;79;20210;-69
2022/08/07 04:03:27;;;;;;;;;;;;;;;24.87;68.99;100518.19;1764315;78;20957;-69
2022/08/07 04:05:54;;;;;;;;;;;;;;;24.89;68.74;100515.33;1791965;78;20174;-69
2022/08/07 04:08:22;;;;;;;;;;;;;;;24.90;68.76;100513.38;1792773;79;20167;-70
2022/08/07 04:10:50;;;;;;;;;;;;;;;24.97;68.60;100515.70;1812648;78;21121;-70
2022/08/07 04:13:16;;;;;;;;;;;;;;;25.09;68.03;100518.11;1798832;79;20234;-70
2022/08/07 04:15:43;;;;;;;;;;;;;;;25.19;67.57;100518.95;1786290;80;20171;-70
2022/08/07 04:18:13;;;;;;;;;;;;;;;25.26;67.02;100531.41;1785323;79;20160;-70
2022/08/07 04:20:41;;;;;;;;;;;;;;;25.33;66.60;100523.94;1782835;80;20261;-70
2022/08/07 04:23:08;;;;;;;;;;;;;;;25.41;66.45;100525.69;1801729;79;21059;-70
2022/08/07 04:25:39;;;;;;;;;;;;;;;25.52;66.10;100529.43;1775964;79;20185;-70
2022/08/07 04:28:06;;;;;;;;;;;;;;;25.58;65.77;100531.31;1782128;78;20185;-70
2022/08/07 04:30:34;;;;;;;;;;;;;;;25.66;65.60;100523.45;1771174;80;20169;-70
2022/08/07 04:33:08;;;;;;;;;;;;;;;25.76;65.07;100523.45;1771301;78;20207;-70
2022/08/07 04:35:37;;;;;;;;;;;;;;;25.84;64.89;100529.33;1785936;79;21009;-70
2022/08/07 04:38:08;;;;;;;;;;;;;;;25.93;64.72;100525.80;1785511;78;20236;-70
2022/08/07 04:40:38;;;;;;;;;;;;;;;26.06;64.52;100533.25;1788574;79;20170;-70
2022/08/07 04:43:04;;;;;;;;;;;;;;;26.15;64.29;100526.39;1784206;78;20819;-70
2022/08/07 04:45:56;;;;;;;;;;;;;;;26.28;64.06;100530.33;1782590;79;20159;-70
2022/08/07 04:48:45;;;;;;;;;;;;;;;26.39;63.68;100532.12;1782658;80;21996;-70
2022/08/07 04:51:25;;;;;;;;;;;;;;;26.51;63.19;100523.52;1783585;79;20194;-70
2022/08/07 04:53:59;;;;;;;;;;;;;;;26.62;62.73;100534.88;1779059;79;20201;-70
2022/08/07 04:56:48;;;;;;;;;;;;;;;26.74;62.24;100536.63;1783065;79;20366;-70
2022/08/07 04:59:28;;;;;;;;;;;;;;;26.85;61.80;100538.16;1786584;80;20166;-70
2022/08/07 05:02:07;;;;;;;;;;;;;;;26.96;61.75;100545.98;1753738;80;21130;-71
2022/08/07 05:04:47;;;;;;;;;;;;;;;26.95;61.35;100543.59;1788637;80;20474;-70
2022/08/07 05:07:23;;;;;;;;;;;;;;;26.89;61.21;100549.40;1789943;80;20189;-70
2022/08/07 05:10:03;;;;;;;;;;;;;;;26.96;61.24;100554.78;1792046;80;20495;-71
2022/08/07 05:12:55;;;;;;;;;;;;;;;27.07;61.40;100556.51;1791181;79;20190;-69
2022/08/07 05:15:30;;;;;;;;;;;;;;;27.11;61.06;100556.56;1792602;79;20952;-70
2022/08/07 05:18:04;;;;;;;;;;;;;;;27.05;61.06;100552.58;1783004;80;20497;-69
2022/08/07 05:20:34;;;;;;;;;;;;;;;27.13;60.95;100555.66;1786897;79;20158;-70
2022/08/07 05:23:03;;;;;;;;;;;;;;;27.25;60.61;100560.93;1786719;79;20224;-70
2022/08/07 05:25:29;;;;;;;;;;;;;;;27.38;60.27;100558.76;1786604;80;20544;-70
2022/08/07 05:27:56;;;;;;;;;;;;;;;27.50;60.15;100561.84;1783527;79;21097;-70
2022/08/07 05:30:22;;;;;;;;;;;;;;;27.63;59.78;100564.56;1784787;79;20268;-70
2022/08/07 05:32:49;;;;;;;;;;;;;;;27.73;58.98;100562.52;1785878;80;20252;-71
2022/08/07 05:35:17;;;;;;;;;;;;;;;27.78;58.09;100566.94;1785944;80;20248;-70
2022/08/07 05:37:45;;;;;;;;;;;;;;;27.79;58.22;100567.92;1785432;78;20212;-72
2022/08/07 05:40:11;;;;;;;;;;;;;;;27.83;58.36;100564.64;1787635;79;21110;-71
2022/08/07 05:42:38;;;;;;;;;;;;;;;27.91;58.21;100570.23;1788121;80;20201;-71
2022/08/07 05:45:07;;;;;;;;;;;;;;;27.99;58.01;100565.02;1784975;79;20174;-70
2022/08/07 05:47:34;;;;;;;;;;;;;;;28.10;57.40;100562.38;1763724;80;20181;-70
2022/08/07 05:50:00;;;;;;;;;;;;;;;28.17;57.08;100564.64;1768401;79;20163;-72
2022/08/07 05:52:27;;;;;;;;;;;;;;;28.22;57.29;100567.03;1784055;80;20728;-72
2022/08/07 05:54:54;;;;;;;;;;;;;;;28.29;57.02;100559.45;1792172;80;20221;-72
2022/08/07 05:57:21;;;;;;;;;;;;;;;28.38;57.07;100564.64;1791684;80;20194;-71
2022/08/07 05:59:48;;;;;;;;;;;;;;;28.47;56.77;100566.53;1787428;79;20293;-72
2022/08/07 06:02:15;;;;;;;;;;;;;;;28.58;56.43;100563.88;1787109;79;20253;-70
2022/08/07 06:04:44;;;;;;;;;;;;;;;28.71;55.93;100561.83;1786753;79;21213;-71
2022/08/07 06:07:11;;;;;;;;;;;;;;;28.84;55.69;100563.70;1787094;79;20489;-71
2022/08/07 06:09:39;;;;;;;;;;;;;;;28.98;55.52;100561.04;1784734;79;20174;-71
2022/08/07 06:12:06;;;;;;;;;;;;;;;29.14;54.95;100559.41;1787595;79;20162;-71
2022/08/07 06:14:33;;;;;;;;;;;;;;;29.25;55.02;100562.22;1788857;80;20193;-71
2022/08/07 06:17:02;;;;;;;;;;;;;;;29.39;54.71;100568.41;1791671;80;21763;-70
2022/08/07 06:19:31;;;;;;;;;;;;;;;29.52;53.59;100565.53;1790475;79;20751;-71
2022/08/07 06:21:58;;;;;;;;;;;;;;;29.62;52.90;100568.95;1789481;79;20165;-71
2022/08/07 06:24:24;;;;;;;;;;;;;;;29.71;52.54;100574.67;1787489;80;20508;-72
2022/08/07 06:26:51;;;;;;;;;;;;;;;29.79;52.58;100567.44;1786424;79;20174;-71
2022/08/07 06:29:17;;;;;;;;;;;;;;;29.89;52.13;100564.53;1785729;79;21148;-71
2022/08/07 06:31:44;;;;;;;;;;;;;;;29.93;51.75;100567.29;1789924;80;20189;-72
2022/08/07 06:34:11;;;;;;;;;;;;;;;29.89;51.84;100570.81;1790941;80;20241;-72
2022/08/07 06:36:38;;;;;;;;;;;;;;;29.86;51.76;100568.05;1790161;78;20531;-72
2022/08/07 06:39:05;;;;;;;;;;;;;;;29.86;51.31;100563.92;1789866;80;20443;-72
2022/08/07 06:41:44;;;;;;;;;;;;;;;29.89;51.67;100568.66;1791744;80;21579;-72
2022/08/07 06:44:11;;;;;;;;;;;;;;;29.95;51.53;100571.23;1791321;80;20492;-71
2022/08/07 06:46:38;;;;;;;;;;;;;;;30.01;51.67;100568.31;1789343;80;20509;-72
2022/08/07 06:49:05;;;;;;;;;;;;;;;30.10;51.71;100570.08;1786599;80;20758;-72
2022/08/07 06:51:33;;;;;;;;;;;;;;;30.20;51.25;100563.64;1787086;79;20162;-72
2022/08/07 06:54:03;;;;;;;;;;;;;;;30.26;51.25;100564.84;1784461;79;21524;-71
2022/08/07 06:56:42;;;;;;;;;;;;;;;30.37;51.15;100558.74;1782953;79;20151;-72
2022/08/07 06:59:11;;;;;;;;;;;;;;;30.47;51.00;100558.55;1785677;79;20186;-72
2022/08/07 07:01:41;;;;;;;;;;;;;;;30.55;50.53;100562.91;1787250;79;20484;-72
2022/08/07 07:04:07;;;;;;;;;;;;;;;30.59;50.45;100556.20;1766181;80;20496;-72
2022/08/07 07:06:34;;;;;;;;;;;;;;;30.66;50.16;100553.25;1771641;80;21234;-72
2022/08/07 07:09:24;;;;;;;;;;;;;;;30.67;49.59;100550.12;1790228;80;20520;-71
2022/08/07 07:12:06;;;;;;;;;;;;;;;30.67;49.82;100556.20;1790518;80;20183;-72
2022/08/07 07:15:06;;;;;;;;;;;;;;;30.77;50.27;100556.84;1791757;80;20226;-72
2022/08/07 07:17:37;;;;;;;;;;;;;;;30.88;50.09;100560.37;1791724;79;20183;-72
2022/08/07 07:20:07;;;;;;;;;;;;;;;31.02;49.82;100567.23;1791610;80;20582;-73
2022/08/07 07:22:33;;;;;;;;;;;;;;;31.11;49.22;100564.67;1791589;80;20206;-72
2022/08/07 07:25:01;;;;;;;;;;;;;;;31.14;49.04;100565.27;1791949;80;20465;-73
2022/08/07 07:27:30;;;;;;;;;;;;;;;31.21;49.32;100559.72;1791605;80;20179;-72
2022/08/07 07:29:58;;;;;;;;;;;;;;;31.27;48.98;100560.89;1791838;80;20450;-73
2022/08/07 07:32:24;;;;;;;;;;;;;;;31.33;49.03;100564.86;1767569;80;21815;-72
2022/08/07 07:34:53;;;;;;;;;;;;;;;31.45;48.37;100565.00;1791998;80;20163;-70
2022/08/07 07:37:19;;;;;;;;;;;;;;;31.56;47.24;100569.09;1791682;78;20493;-72
2022/08/07 07:39:46;;;;;;;;;;;;;;;31.68;47.16;100568.06;1792111;79;20599;-72
2022/08/07 07:42:12;;;;;;;;;;;;;;;31.80;46.77;100571.58;1791947;78;20166;-72
2022/08/07 07:44:41;;;;;;;;;;;;;;;31.94;46.82;100569.55;1786680;79;21119;-72
2022/08/07 07:47:07;;;;;;;;;;;;;;;32.05;45.54;100564.55;1786378;79;20163;-72
2022/08/07 07:49:34;;;;;;;;;;;;;;;32.12;44.64;100569.46;1786574;78;20238;-71
2022/08/07 07:52:00;;;;;;;;;;;;;;;32.14;44.31;100573.97;1786771;80;20241;-72
2022/08/07 07:54:27;;;;;;;;;;;;;;;32.20;43.30;100572.95;1787911;79;20229;-71
2022/08/07 07:56:54;;;;;;;;;;;;;;;32.29;42.31;100565.01;1786676;79;21024;-72
2022/08/07 07:59:20;;;;;;;;;;;;;;;32.37;42.22;100569.28;1773504;79;20348;-72
2022/08/07 08:01:47;;;;;;;;;;;;;;;32.45;41.66;100572.23;1785978;79;20221;-72
2022/08/07 08:04:14;;;;;;;;;;;;;;;32.55;42.08;100567.03;1771614;79;20493;-73
2022/08/07 08:06:42;;;;;;;;;;;;;;;32.64;41.96;100572.28;1760400;81;20164;-73
2022/08/07 08:09:08;;;;;;;;;;;;;;;32.73;41.46;100571.02;1760527;81;21038;-72
2022/08/07 08:11:35;;;;;;;;;;;;;;;32.81;41.23;100566.41;1772171;80;20174;-72
2022/08/07 08:14:01;;;;;;;;;;;;;;;32.92;41.04;100562.15;1792056;79;20190;-72
2022/08/07 08:16:39;;;;;;;;;;;;;;;33.01;41.32;100563.09;1771031;80;20507;-73
2022/08/07 08:19:07;;;;;;;;;;;;;;;33.07;41.14;100566.39;1761182;80;20161;-72
2022/08/07 08:27:04;;;;;;;;;;;;;;;33.25;39.58;100564.80;1778523;80;20206;-72
2022/08/07 08:29:33;;;;;;;;;;;;;;;33.38;39.59;100563.07;1786955;79;20178;-72
2022/08/07 08:31:59;;;;;;;;;;;;;;;33.55;39.16;100558.55;1785861;80;20193;-73
2022/08/07 08:34:32;;;;;;;;;;;;;;;33.67;40.25;100554.45;1784285;79;21141;-73
2022/08/07 08:36:59;;;;;;;;;;;;;;;33.63;41.16;100556.48;1786875;78;20496;-72
2022/08/07 08:39:26;;;;;;;;;;;;;;;33.64;39.58;100555.89;1786303;79;20206;-72
2022/08/07 08:42:05;;;;;;;;;;;;;;;33.64;39.53;100550.34;1786410;80;20566;-73
2022/08/07 08:44:47;;;;;;;;;;;;;;;33.62;38.97;100552.13;1783915;79;20241;-73
2022/08/07 08:47:20;;;;;;;;;;;;;;;33.34;39.43;100552.64;1786853;79;21996;-72
2022/08/07 08:49:50;;;;;;;;;;;;;;;33.14;40.33;100555.84;1784382;80;20504;-72
2022/08/07 08:52:30;;;;;;;;;;;;;;;33.14;40.41;100554.45;1782861;80;20264;-73
2022/08/07 08:54:58;;;;;;;;;;;;;;;33.19;40.17;100548.45;1786215;79;20225;-72
2022/08/07 08:57:43;;;;;;;;;;;;;;;33.26;40.88;100546.20;1785838;78;20536;-73
2022/08/07 09:00:10;;;;;;;;;;;;;;;33.18;40.76;100548.28;1786664;80;21093;-72
2022/08/07 09:02:59;;;;;;;;;;;;;;;33.07;41.42;100550.36;1785013;80;20210;-71
2022/08/07 09:06:01;;;;;;;;;;;;;;;32.99;41.76;100545.50;1781869;80;20209;-72
2022/08/07 09:08:44;;;;;;;;;;;;;;;32.96;41.85;100538.59;1787728;80;20170;-71
2022/08/07 09:11:32;;;;;;;;;;;;;;;32.91;41.37;100533.70;1791580;79;20158;-73
2022/08/07 09:14:08;;;;;;;;;;;;;;;32.88;41.94;100534.52;1792717;79;21534;-73
2022/08/07 09:16:55;;;;;;;;;;;;;;;32.86;40.43;100533.35;1776329;80;20140;-71
2022/08/07 09:19:31;;;;;;;;;;;;;;;32.77;39.63;100540.73;1760776;81;20198;-73
2022/08/07 09:22:04;;;;;;;;;;;;;;;32.54;39.37;100539.17;1760763;81;20176;-73
2022/08/07 09:24:52;;;;;;;;;;;;;;;32.36;40.01;100547.58;1783941;80;20221;-75
2022/08/07 09:27:56;;;;;;;;;;;;;;;32.27;39.39;100541.13;1784993;79;21142;-73
2022/08/07 09:30:23;;;;;;;;;;;;;;;32.29;37.68;100540.13;1786185;79;20627;-72
2022/08/07 09:33:17;;;;;;;;;;;;;;;32.28;36.28;100540.52;1765086;80;20222;-73
2022/08/07 09:35:56;;;;;;;;;;;;;;;32.13;36.92;100540.62;1786600;79;20578;-73
2022/08/07 09:38:32;;;;;;;;;;;;;;;31.91;37.64;100537.80;1787081;78;20209;-72
2022/08/07 09:41:16;;;;;;;;;;;;;;;31.81;38.63;100537.23;1787200;79;21234;-72
2022/08/07 09:43:53;;;;;;;;;;;;;;;31.60;39.23;100534.78;1786818;79;20177;-72
2022/08/07 09:46:58;;;;;;;;;;;;;;;31.47;39.65;100535.81;1783268;79;20171;-73
2022/08/07 09:49:49;;;;;;;;;;;;;;;31.48;40.21;100527.72;1762988;80;20197;-72
2022/08/07 09:52:22;;;;;;;;;;;;;;;31.75;40.05;100524.44;1767221;80;20531;-71
2022/08/07 09:55:10;;;;;;;;;;;;;;;32.03;39.60;100531.03;1779251;80;21534;-73
2022/08/07 09:58:02;;;;;;;;;;;;;;;32.29;39.40;100538.75;1786852;80;20481;-73
2022/08/07 10:00:41;;;;;;;;;;;;;;;32.49;39.06;100535.47;1759954;81;20240;-73
2022/08/07 10:03:14;;;;;;;;;;;;;;;32.64;39.02;100525.84;1760386;81;20185;-72
2022/08/07 10:05:50;;;;;;;;;;;;;;;32.69;38.05;100518.50;1760705;81;20171;-73
2022/08/07 10:08:48;;;;;;;;;;;;;;;32.68;38.82;100525.23;1760390;81;21245;-72
2022/08/07 10:11:25;;;;;;;;;;;;;;;32.67;38.94;100537.47;1783930;80;20547;-72
2022/08/07 10:14:01;;;;;;;;;;;;;;;32.64;38.31;100552.11;1782200;80;20497;-74
2022/08/07 10:16:42;;;;;;;;;;;;;;;32.32;37.59;100549.00;1791662;80;20785;-74
2022/08/07 10:19:18;;;;;;;;;;;;;;;31.78;38.47;100545.13;1791826;80;20214;-73
2022/08/07 10:21:58;;;;;;;;;;;;;;;31.34;39.28;100527.78;1791668;80;21135;-73
2022/08/07 10:24:44;;;;;;;;;;;;;;;31.01;39.90;100522.13;1791536;80;20477;-74
2022/08/07 10:27:17;;;;;;;;;;;;;;;30.81;40.64;100521.77;1791519;80;20198;-74
2022/08/07 10:30:07;;;;;;;;;;;;;;;30.66;41.05;100540.25;1790836;80;20210;-74
2022/08/07 10:32:48;;;;;;;;;;;;;;;30.54;41.67;100542.83;1791747;80;20159;-73
2022/08/07 10:35:51;;;;;;;;;;;;;;;30.43;41.55;100535.72;1791788;80;21414;-72
2022/08/07 10:38:27;;;;;;;;;;;;;;;30.27;41.47;100542.98;1791995;80;20202;-73
2022/08/07 10:41:12;;;;;;;;;;;;;;;30.15;41.91;100528.39;1791883;80;20179;-72
2022/08/07 10:43:45;;;;;;;;;;;;;;;30.06;42.30;100534.86;1791773;80;20723;-71
2022/08/07 10:46:22;;;;;;;;;;;;;;;29.98;42.94;100530.53;1791383;78;20489;-72
2022/08/07 10:48:58;;;;;;;;;;;;;;;29.87;43.52;100532.45;1791738;80;21803;-73
2022/08/07 10:51:49;;;;;;;;;;;;;;;29.72;43.54;100523.97;1790693;80;20450;-72
2022/08/07 10:54:22;;;;;;;;;;;;;;;29.61;44.35;100519.78;1788550;78;20454;-73
2022/08/07 10:57:08;;;;;;;;;;;;;;;29.52;45.18;100517.97;1785920;79;20292;-73
2022/08/07 11:00:00;;;;;;;;;;;;;;;29.52;44.80;100515.22;1787495;79;20170;-72
2022/08/07 11:02:47;;;;;;;;;;;;;;;29.48;46.20;100520.67;1791777;80;20556;-73
2022/08/07 11:05:20;;;;;;;;;;;;;;;29.42;47.37;100534.04;1790205;80;20213;-73
2022/08/07 11:08:10;;;;;;;;;;;;;;;29.43;47.59;100534.82;1783777;80;20218;-72
2022/08/07 11:11:14;;;;;;;;;;;;;;;29.44;48.24;100538.55;1791929;79;20167;-73
2022/08/07 11:13:46;;;;;;;;;;;;;;;29.45;48.44;100526.95;1791993;80;20190;-73
2022/08/07 11:16:21;;;;;;;;;;;;;;;29.35;46.86;100529.88;1789820;80;21028;-72
2022/08/07 11:18:57;;;;;;;;;;;;;;;29.21;46.97;100525.66;1756578;81;20215;-72
2022/08/07 11:21:36;;;;;;;;;;;;;;;29.10;47.40;100522.07;1780466;80;20186;-72
2022/08/07 11:24:18;;;;;;;;;;;;;;;29.04;48.10;100531.85;1791889;79;20189;-73
2022/08/07 11:27:00;;;;;;;;;;;;;;;28.98;48.53;100523.14;1777006;79;20188;-73
2022/08/07 11:29:46;;;;;;;;;;;;;;;28.95;48.99;100532.15;1795225;78;21554;-72
2022/08/07 11:32:17;;;;;;;;;;;;;;;28.94;49.50;100536.08;1776393;78;20172;-72
2022/08/07 11:34:47;;;;;;;;;;;;;;;28.88;49.54;100527.39;1784407;78;20159;-72
2022/08/07 11:37:51;;;;;;;;;;;;;;;28.84;49.60;100514.80;1780921;79;20586;-71
2022/08/07 11:40:45;;;;;;;;;;;;;;;28.82;49.42;100507.52;1651221;78;10000081;-71
2022/08/07 11:43:20;;;;;;;;;;;;;;;28.77;49.79;100498.27;1790253;79;20202;-71
2022/08/07 11:46:15;;;;;;;;;;;;;;;28.77;49.45;100495.52;1790734;79;20203;-71
2022/08/07 11:49:01;;;;;;;;;;;;;;;28.81;49.41;100501.23;1770206;79;20206;-72
2022/08/07 11:51:49;;;;;;;;;;;;;;;28.81;49.57;100501.82;1788280;80;21785;-73
2022/08/07 11:54:22;;;;;;;;;;;;;;;28.78;49.62;100510.23;1789475;79;20193;-72
2022/08/07 11:57:12;;;;;;;;;;;;;;;28.73;49.89;100516.11;1765619;80;20648;-71
2022/08/07 12:00:10;;;;;;;;;;;;;;;28.68;50.33;100515.08;1773589;79;20686;-72
2022/08/07 12:02:47;;;;;;;;;;;;;;;28.59;51.00;100525.01;1791112;79;20420;-72
2022/08/07 12:05:37;;;;;;;;;;;;;;;28.55;52.11;100520.08;1767109;80;21456;-73
2022/08/07 12:08:23;;;;;;;;;;;;;;;28.50;53.13;100514.36;1789512;79;20222;-72
2022/08/07 12:11:11;;;;;;;;;;;;;;;28.43;53.60;100506.62;1790366;80;20229;-72
2022/08/07 12:13:50;;;;;;;;;;;;;;;28.35;53.82;100500.25;1768808;79;20300;-71
2022/08/07 12:16:25;;;;;;;;;;;;;;;28.32;54.03;100502.98;1789904;79;20205;-72
2022/08/07 12:19:12;;;;;;;;;;;;;;;28.33;54.29;100501.80;1789007;79;21217;-73
2022/08/07 12:22:00;;;;;;;;;;;;;;;28.33;54.44;100512.78;1782597;80;20448;-75
2022/08/07 12:27:46;;;;;;;;;;;;;;;28.33;55.35;100523.77;1721786;83;20170;-75
2022/08/07 12:30:23;;;;;;;;;;;;;;;28.33;55.39;100515.53;1719497;83;20334;-76
2022/08/07 12:32:59;;;;;;;;;;;;;;;28.33;55.56;100510.82;1706600;82;21119;-75
2022/08/07 12:35:25;;;;;;;;;;;;;;;28.29;55.78;100505.30;1708355;83;20428;-75
2022/08/07 12:37:52;;;;;;;;;;;;;;;28.28;56.09;100500.98;1719863;83;20153;-76
2022/08/07 12:40:20;;;;;;;;;;;;;;;28.23;56.06;100493.11;1722876;82;20468;-77
2022/08/07 12:42:47;;;;;;;;;;;;;;;28.20;56.43;100500.73;1765900;81;20187;-76
2022/08/07 12:45:22;;;;;;;;;;;;;;;28.19;56.71;100501.09;1766080;81;21791;-75
2022/08/07 12:48:29;;;;;;;;;;;;;;;28.17;56.95;100508.34;1765835;81;20214;-77
2022/08/07 12:51:04;;;;;;;;;;;;;;;28.11;56.97;100513.97;1639827;81;10000213;-78
2022/08/07 12:53:49;;;;;;;;;;;;;;;28.03;57.37;100524.07;1748608;81;20171;-76
2022/08/07 12:56:34;;;;;;;;;;;;;;;27.97;57.83;100530.28;1766811;81;21106;-77
2022/08/07 12:59:02;;;;;;;;;;;;;;;27.92;58.46;100533.38;1766966;81;20159;-78
2022/08/07 13:01:48;;;;;;;;;;;;;;;27.90;58.80;100532.36;1767060;80;20509;-78
2022/08/07 13:04:35;;;;;;;;;;;;;;;27.86;58.89;100526.05;1745325;81;20188;-77
2022/08/07 13:07:23;;;;;;;;;;;;;;;27.82;59.35;100521.89;1750723;81;20168;-77
2022/08/07 13:10:18;;;;;;;;;;;;;;;27.75;59.87;100523.16;1765540;81;21199;-77
2022/08/07 13:13:07;;;;;;;;;;;;;;;27.67;60.34;100524.23;1764843;81;20552;-76
2022/08/07 13:16:01;;;;;;;;;;;;;;;27.59;60.94;100532.17;1764654;81;20198;-79